Time;durP1;ratioP1;P1;durP2;ratioP2;P2;SDS_P1;SDS_P2;PMS_P1;PMS_P2;Temp;Humidity;BMP_temperature;BMP_pressure;BME280_temperature;BME280_humidity;BME280_pressure;Samples;Min_cycle;Max_cycle;Signal;HPM_P1;HPM_P2
2023/07/24 00:02:41;;;;;;;4.40;2.28;;;21.50;90.80;;;;;;4990600;28;20120;-67
2023/07/24 00:05:27;;;;;;;3.78;2.45;;;21.50;90.70;;;;;;5008149;28;20457;-67
2023/07/24 00:08:13;;;;;;;3.70;2.70;;;21.50;90.70;;;;;;5005044;28;20056;-68
2023/07/24 00:10:59;;;;;;;4.20;2.53;;;21.50;90.60;;;;;;4994030;28;20042;-67
2023/07/24 00:13:45;;;;;;;4.05;2.58;;;21.50;90.50;;;;;;4995981;28;20524;-67
2023/07/24 00:16:31;;;;;;;2.53;1.90;;;21.50;90.50;;;;;;4992089;28;20046;-67
2023/07/24 00:19:17;;;;;;;3.70;2.40;;;21.60;90.40;;;;;;4993425;28;20050;-67
2023/07/24 00:22:03;;;;;;;5.63;3.10;;;21.60;90.30;;;;;;4996751;28;20042;-66
2023/07/24 00:24:49;;;;;;;6.25;2.95;;;21.60;90.30;;;;;;5008613;28;20112;-67
2023/07/24 00:27:35;;;;;;;3.80;2.20;;;21.60;90.20;;;;;;5003710;28;20053;-67
2023/07/24 00:30:21;;;;;;;7.40;2.95;;;21.60;90.20;;;;;;5004127;28;20050;-66
2023/07/24 00:33:07;;;;;;;4.35;2.63;;;21.60;90.10;;;;;;4994543;28;20038;-66
2023/07/24 00:35:59;;;;;;;3.58;2.47;;;21.60;90.10;;;;;;4992389;28;20058;-68
2023/07/24 00:38:45;;;;;;;4.22;2.40;;;21.60;90.10;;;;;;5006637;28;20454;-67
2023/07/24 00:41:31;;;;;;;3.90;2.10;;;21.60;90.10;;;;;;5012476;28;20430;-67
2023/07/24 00:44:18;;;;;;;3.90;2.20;;;21.60;90.00;;;;;;4997947;28;20052;-67
2023/07/24 00:47:05;;;;;;;3.63;2.00;;;21.70;89.80;;;;;;4992359;28;20048;-67
2023/07/24 00:49:51;;;;;;;4.55;2.65;;;21.60;89.70;;;;;;4993238;28;20034;-66
2023/07/24 00:52:37;;;;;;;4.45;2.58;;;21.60;89.60;;;;;;5005696;28;20042;-66
2023/07/24 00:55:24;;;;;;;3.78;2.33;;;21.60;89.40;;;;;;5010235;28;20038;-67
2023/07/24 00:58:11;;;;;;;4.65;2.35;;;21.60;89.30;;;;;;5002647;28;20050;-67
2023/07/24 01:00:57;;;;;;;3.92;2.50;;;21.60;89.30;;;;;;4992105;28;20046;-67
2023/07/24 01:03:44;;;;;;;4.15;2.35;;;21.60;89.70;;;;;;4993112;28;20065;-67
2023/07/24 01:06:30;;;;;;;4.07;2.38;;;21.60;89.10;;;;;;5010150;28;20165;-66
2023/07/24 01:09:16;;;;;;;3.03;1.85;;;21.60;89.10;;;;;;4992402;28;20068;-66
2023/07/24 01:12:15;;;;;;;3.50;2.33;;;21.60;89.10;;;;;;4992154;28;20085;-67
2023/07/24 01:15:22;;;;;;;3.88;2.20;;;21.60;89.10;;;;;;5003095;28;20042;-67
2023/07/24 01:18:10;;;;;;;3.50;2.20;;;21.50;89.10;;;;;;5010069;28;20513;-68
2023/07/24 01:20:58;;;;;;;2.85;1.80;;;21.50;89.10;;;;;;5008034;28;20410;-68
2023/07/24 01:24:19;;;;;;;4.55;2.60;;;21.50;89.20;;;;;;5009300;28;20107;-68
2023/07/24 01:27:07;;;;;;;4.85;2.30;;;21.50;89.30;;;;;;5009207;28;20407;-69
2023/07/24 01:29:53;;;;;;;4.50;2.33;;;21.40;89.40;;;;;;4994081;28;20053;-70
2023/07/24 01:32:39;;;;;;;4.43;2.40;;;21.40;89.50;;;;;;5004893;28;20073;-70
2023/07/24 01:35:27;;;;;;;3.78;2.40;;;21.40;89.50;;;;;;5002212;28;20062;-68
2023/07/24 01:38:18;;;;;;;3.42;2.30;;;21.40;89.60;;;;;;5001054;28;20427;-67
2023/07/24 01:41:04;;;;;;;3.60;2.47;;;21.40;89.70;;;;;;4995753;28;20737;-68
2023/07/24 01:43:50;;;;;;;5.85;2.28;;;21.40;89.70;;;;;;4991320;28;20120;-68
2023/07/24 01:46:36;;;;;;;5.03;2.38;;;21.40;89.80;;;;;;5011123;28;20038;-69
2023/07/24 01:49:22;;;;;;;2.85;1.70;;;21.40;89.90;;;;;;5000338;28;20049;-67
2023/07/24 01:52:07;;;;;;;3.28;2.28;;;21.40;90.00;;;;;;4997988;28;20531;-67
2023/07/24 01:54:53;;;;;;;9.98;2.55;;;21.40;90.00;;;;;;5004059;28;20368;-67
2023/07/24 01:57:39;;;;;;;3.60;2.33;;;21.40;90.10;;;;;;4992581;28;20029;-68
2023/07/24 02:00:25;;;;;;;4.03;2.28;;;21.40;90.10;;;;;;4991256;28;20046;-68
2023/07/24 02:03:11;;;;;;;4.30;2.28;;;21.40;90.10;;;;;;4992256;28;20042;-67
2023/07/24 02:05:57;;;;;;;4.57;2.13;;;21.40;90.10;;;;;;5006656;28;20157;-67
2023/07/24 02:08:48;;;;;;;3.58;2.20;;;21.40;90.10;;;;;;5003725;28;20054;-69
2023/07/24 02:11:34;;;;;;;4.22;2.20;;;21.40;90.10;;;;;;4990029;28;20045;-68
2023/07/24 02:14:20;;;;;;;3.70;2.20;;;21.40;90.10;;;;;;4994660;28;20076;-69
2023/07/24 02:17:06;;;;;;;10.52;2.50;;;21.40;90.10;;;;;;5009149;28;20050;-68
2023/07/24 02:19:52;;;;;;;3.47;2.20;;;21.40;90.00;;;;;;4989795;28;20049;-68
2023/07/24 02:22:38;;;;;;;4.88;2.70;;;21.40;90.00;;;;;;5006751;28;20041;-68
2023/07/24 02:25:24;;;;;;;3.83;2.10;;;21.40;90.10;;;;;;5002490;28;20046;-68
2023/07/24 02:28:10;;;;;;;3.97;2.58;;;21.40;90.10;;;;;;4993682;28;20403;-67
2023/07/24 02:30:56;;;;;;;4.05;2.30;;;21.40;90.10;;;;;;4990902;28;20051;-67
2023/07/24 02:33:42;;;;;;;4.22;2.28;;;21.40;90.10;;;;;;4997420;28;20073;-68
2023/07/24 02:36:28;;;;;;;5.22;2.72;;;21.40;90.10;;;;;;4990827;28;20058;-68
2023/07/24 02:39:14;;;;;;;3.63;2.35;;;21.40;90.10;;;;;;4990659;28;20042;-68
2023/07/24 02:42:00;;;;;;;4.55;2.30;;;21.40;90.10;;;;;;4990241;28;20410;-68
2023/07/24 02:44:46;;;;;;;3.90;2.33;;;21.50;90.20;;;;;;4995800;28;20042;-68
2023/07/24 02:47:32;;;;;;;4.20;2.53;;;21.50;90.20;;;;;;5007280;28;20061;-68
2023/07/24 02:50:18;;;;;;;4.43;2.50;;;21.50;90.30;;;;;;4991372;28;20042;-68
2023/07/24 02:53:04;;;;;;;3.42;2.53;;;21.50;90.30;;;;;;4991527;28;20045;-68
2023/07/24 02:55:50;;;;;;;3.47;1.85;;;21.50;90.40;;;;;;4993478;28;20078;-68
2023/07/24 02:58:36;;;;;;;3.30;2.13;;;21.50;90.40;;;;;;4990668;28;20072;-67
2023/07/24 03:01:22;;;;;;;3.17;1.70;;;21.50;90.50;;;;;;4990822;28;20057;-68
2023/07/24 03:04:08;;;;;;;5.18;2.30;;;21.50;90.60;;;;;;5005331;28;20041;-67
2023/07/24 03:06:54;;;;;;;3.20;2.25;;;21.50;90.90;;;;;;5004369;28;20053;-66
2023/07/24 03:09:39;;;;;;;3.50;2.17;;;21.50;90.70;;;;;;5008895;28;20045;-66
2023/07/24 03:12:26;;;;;;;3.15;1.80;;;21.50;90.80;;;;;;4991882;28;20054;-66
2023/07/24 03:15:11;;;;;;;4.38;2.40;;;21.50;90.90;;;;;;4998125;28;20400;-66
2023/07/24 03:17:57;;;;;;;3.65;2.30;;;21.60;91.00;;;;;;4996363;28;20050;-67
2023/07/24 03:20:43;;;;;;;9.32;3.28;;;21.50;91.00;;;;;;5009724;28;20117;-67
2023/07/24 03:23:29;;;;;;;4.22;1.88;;;21.60;91.10;;;;;;4999013;28;20051;-67
2023/07/24 03:26:15;;;;;;;2.83;2.03;;;21.60;91.20;;;;;;5005407;28;20058;-68
2023/07/24 03:29:01;;;;;;;4.05;1.85;;;21.60;91.20;;;;;;4990728;28;20534;-67
2023/07/24 03:31:47;;;;;;;3.78;1.80;;;21.60;91.30;;;;;;4989637;28;20105;-66
2023/07/24 03:34:33;;;;;;;3.33;2.03;;;21.60;91.40;;;;;;4994736;28;20046;-67
2023/07/24 03:37:19;;;;;;;4.15;1.90;;;21.60;91.40;;;;;;5008017;28;20089;-69
2023/07/24 03:40:06;;;;;;;3.10;1.65;;;21.60;91.50;;;;;;5012034;28;20038;-68
2023/07/24 03:42:51;;;;;;;2.83;1.60;;;21.60;91.60;;;;;;5001175;28;20458;-68
2023/07/24 03:45:37;;;;;;;2.33;1.60;;;21.60;91.60;;;;;;5011807;28;20402;-69
2023/07/24 03:48:23;;;;;;;2.75;1.55;;;21.70;91.70;;;;;;5002635;28;20050;-76
2023/07/24 03:51:09;;;;;;;2.55;1.75;;;21.70;91.90;;;;;;5010427;28;20049;-67
2023/07/24 03:53:55;;;;;;;4.95;2.50;;;21.70;92.00;;;;;;4998919;28;20105;-66
2023/07/24 03:56:41;;;;;;;2.92;1.63;;;21.70;92.10;;;;;;5012664;28;20037;-66
2023/07/24 03:59:27;;;;;;;4.63;1.90;;;21.70;92.20;;;;;;5002232;28;20046;-66
2023/07/24 04:02:13;;;;;;;3.63;1.63;;;21.70;92.20;;;;;;5010677;28;20406;-66
2023/07/24 04:04:59;;;;;;;3.20;1.70;;;21.70;92.40;;;;;;4998324;28;20045;-69
2023/07/24 04:07:45;;;;;;;1.80;1.20;;;21.70;92.50;;;;;;5005569;28;20414;-69
2023/07/24 04:10:30;;;;;;;1.83;1.33;;;21.70;92.70;;;;;;5010088;28;20610;-69
2023/07/24 04:13:16;;;;;;;3.00;1.63;;;21.70;93.10;;;;;;5003448;28;20499;-70
2023/07/24 04:16:02;;;;;;;5.32;1.90;;;21.70;93.30;;;;;;5008460;28;20414;-70
2023/07/24 04:18:48;;;;;;;3.72;2.13;;;21.70;93.40;;;;;;5003596;28;20105;-70
2023/07/24 04:21:34;;;;;;;3.00;1.67;;;21.70;93.60;;;;;;4993174;28;20061;-70
2023/07/24 04:24:20;;;;;;;3.30;1.50;;;21.70;93.80;;;;;;5002914;28;20049;-70
2023/07/24 04:27:06;;;;;;;3.25;1.95;;;21.70;94.00;;;;;;5001427;28;20058;-70
2023/07/24 04:29:52;;;;;;;3.85;1.50;;;21.70;94.10;;;;;;4996026;28;20129;-69
2023/07/24 04:32:38;;;;;;;3.85;1.60;;;21.70;94.30;;;;;;5009344;28;20116;-69
2023/07/24 04:35:24;;;;;;;3.42;1.60;;;21.80;94.50;;;;;;4994017;28;20054;-69
2023/07/24 04:38:10;;;;;;;2.25;1.40;;;21.80;94.60;;;;;;5001747;28;20070;-69
2023/07/24 04:40:56;;;;;;;4.10;1.45;;;21.80;94.70;;;;;;5009706;28;20049;-69
2023/07/24 04:43:41;;;;;;;2.22;1.50;;;21.80;94.80;;;;;;5006973;28;20398;-69
2023/07/24 04:46:27;;;;;;;1.98;1.25;;;21.80;94.90;;;;;;4997413;28;20410;-70
2023/07/24 04:49:13;;;;;;;5.63;1.67;;;21.80;95.00;;;;;;4998494;28;20471;-70
2023/07/24 04:51:59;;;;;;;3.30;1.60;;;21.90;95.10;;;;;;4996478;28;20061;-69
2023/07/24 04:54:45;;;;;;;2.03;1.30;;;21.90;95.20;;;;;;4992326;28;20047;-69
2023/07/24 04:57:31;;;;;;;2.83;1.80;;;22.00;95.20;;;;;;5001255;28;20034;-69
2023/07/24 05:00:17;;;;;;;2.35;1.42;;;22.00;95.30;;;;;;5003546;28;20459;-69
2023/07/24 05:03:03;;;;;;;1.90;1.40;;;22.10;95.20;;;;;;4998753;28;20077;-68
2023/07/24 05:05:55;;;;;;;1.92;1.38;;;22.20;95.30;;;;;;5010035;28;20506;-70
2023/07/24 05:08:41;;;;;;;1.63;1.20;;;22.20;95.20;;;;;;5002769;28;20411;-71
2023/07/24 05:11:27;;;;;;;4.45;1.40;;;22.30;95.30;;;;;;5008532;28;20483;-70
2023/07/24 05:14:13;;;;;;;2.70;1.60;;;22.30;95.30;;;;;;5006501;28;20442;-77
2023/07/24 05:16:59;;;;;;;3.13;1.65;;;22.30;95.20;;;;;;5011085;28;20133;-72
2023/07/24 05:19:45;;;;;;;2.08;1.33;;;22.40;95.20;;;;;;4992120;28;20046;-71
2023/07/24 05:22:31;;;;;;;2.15;1.50;;;22.40;95.20;;;;;;5000992;28;20474;-71
2023/07/24 05:25:16;;;;;;;2.33;1.38;;;22.50;95.30;;;;;;4992268;28;20466;-68
2023/07/24 05:28:03;;;;;;;2.33;1.40;;;22.60;95.40;;;;;;4997035;28;20057;-68
2023/07/24 05:30:49;;;;;;;2.28;1.25;;;22.70;95.50;;;;;;5009250;28;20045;-68
2023/07/24 05:33:35;;;;;;;2.33;1.33;;;22.90;95.30;;;;;;5000368;28;20054;-68
2023/07/24 05:36:20;;;;;;;4.25;1.83;;;22.90;95.10;;;;;;5002439;28;20133;-68
2023/07/24 05:39:07;;;;;;;3.67;1.27;;;23.00;95.20;;;;;;5006390;28;20054;-67
2023/07/24 05:41:52;;;;;;;2.22;1.20;;;23.10;95.20;;;;;;4999698;28;20050;-68
2023/07/24 05:44:38;;;;;;;3.78;1.50;;;23.20;95.20;;;;;;5008092;28;20042;-67
2023/07/24 05:47:24;;;;;;;1.23;1.08;;;23.20;94.90;;;;;;5007591;28;20112;-67
2023/07/24 05:50:13;;;;;;;2.70;1.42;;;23.20;94.70;;;;;;5008007;28;20160;-67
2023/07/24 05:52:59;;;;;;;2.45;1.23;;;23.30;94.60;;;;;;4997019;28;20405;-67
2023/07/24 05:55:45;;;;;;;1.73;1.33;;;23.30;94.40;;;;;;4993218;28;20045;-66
2023/07/24 05:58:31;;;;;;;2.58;1.30;;;23.40;94.30;;;;;;4991369;28;20104;-67
2023/07/24 06:01:17;;;;;;;2.35;1.30;;;23.40;94.10;;;;;;5002074;28;20052;-66
2023/07/24 06:04:03;;;;;;;2.20;1.58;;;23.50;94.00;;;;;;4996139;28;20104;-69
2023/07/24 06:06:49;;;;;;;2.35;1.30;;;23.40;93.80;;;;;;5010303;28;20034;-69
2023/07/24 06:09:35;;;;;;;3.78;1.95;;;23.50;93.80;;;;;;4998318;28;20058;-70
2023/07/24 06:12:21;;;;;;;6.03;1.40;;;23.40;93.60;;;;;;4991896;28;20034;-70
2023/07/24 06:15:07;;;;;;;17.85;4.38;;;23.50;93.40;;;;;;5009009;28;20049;-70
2023/07/24 06:17:53;;;;;;;21.05;4.88;;;23.50;93.40;;;;;;5004856;28;20056;-69
2023/07/24 06:20:39;;;;;;;22.45;5.10;;;23.50;93.20;;;;;;4995434;28;20050;-69
2023/07/24 06:23:25;;;;;;;4.57;1.48;;;23.50;93.10;;;;;;5002244;28;20049;-69
2023/07/24 06:26:10;;;;;;;3.75;2.10;;;23.50;92.90;;;;;;5008105;28;20100;-70
2023/07/24 06:28:56;;;;;;;3.75;2.20;;;23.50;92.80;;;;;;4993004;28;20145;-68
2023/07/24 06:31:42;;;;;;;5.47;2.08;;;23.50;92.70;;;;;;4998054;28;20049;-69
2023/07/24 06:34:28;;;;;;;5.65;3.63;;;23.50;92.70;;;;;;4995560;28;20050;-69
2023/07/24 06:37:14;;;;;;;24.80;5.60;;;23.50;92.60;;;;;;5001601;28;20054;-70
2023/07/24 06:40:00;;;;;;;9.75;2.90;;;23.50;92.50;;;;;;4994174;28;20049;-69
2023/07/24 06:42:46;;;;;;;6.25;2.78;;;23.60;92.40;;;;;;4991087;28;20042;-68
2023/07/24 06:45:32;;;;;;;6.03;2.95;;;23.60;92.30;;;;;;4994756;28;20447;-68
2023/07/24 06:48:18;;;;;;;15.45;2.15;;;23.60;92.30;;;;;;5002453;28;20058;-68
2023/07/24 06:51:04;;;;;;;2.65;1.55;;;23.60;92.10;;;;;;5002077;28;20069;-69
2023/07/24 06:53:50;;;;;;;3.05;2.00;;;23.60;92.00;;;;;;5005994;28;20040;-68
2023/07/24 06:56:36;;;;;;;2.40;1.60;;;23.60;91.90;;;;;;4992867;28;20050;-69
2023/07/24 06:59:22;;;;;;;6.40;2.90;;;23.60;91.90;;;;;;4998445;28;20049;-69
2023/07/24 07:02:08;;;;;;;4.55;2.25;;;23.70;91.80;;;;;;5005881;28;20045;-69
2023/07/24 07:04:54;;;;;;;7.32;2.42;;;23.70;91.70;;;;;;5005234;28;20517;-68
2023/07/24 07:07:40;;;;;;;5.32;1.95;;;23.80;91.60;;;;;;4994578;28;20125;-70
2023/07/24 07:10:26;;;;;;;3.78;1.98;;;23.80;91.50;;;;;;5006695;28;20046;-69
2023/07/24 07:13:12;;;;;;;9.20;2.80;;;23.90;91.50;;;;;;5007481;28;20049;-69
2023/07/24 07:15:58;;;;;;;3.47;1.75;;;23.90;91.30;;;;;;5000726;28;20104;-69
2023/07/24 07:18:44;;;;;;;2.38;1.38;;;23.90;91.10;;;;;;4989577;28;20039;-68
2023/07/24 07:21:30;;;;;;;2.55;1.73;;;24.00;91.10;;;;;;4988881;28;20109;-69
2023/07/24 07:24:16;;;;;;;2.53;1.55;;;24.00;91.10;;;;;;5002828;28;20069;-68
2023/07/24 07:27:02;;;;;;;2.50;1.70;;;24.00;91.00;;;;;;4994071;28;20491;-68
2023/07/24 07:29:48;;;;;;;5.57;2.38;;;24.10;91.00;;;;;;5003837;28;20054;-68
2023/07/24 07:32:34;;;;;;;9.00;2.40;;;24.10;90.70;;;;;;4999568;28;20501;-69
2023/07/24 07:35:20;;;;;;;5.78;2.15;;;24.20;90.80;;;;;;4992482;28;20054;-68
2023/07/24 07:38:06;;;;;;;4.53;1.70;;;24.20;90.60;;;;;;5000224;28;20049;-68
2023/07/24 07:40:52;;;;;;;3.05;1.55;;;24.20;90.50;;;;;;4989113;28;20046;-68
2023/07/24 07:43:38;;;;;;;4.38;1.80;;;24.30;90.40;;;;;;4995806;28;20030;-68
2023/07/24 07:46:25;;;;;;;6.53;1.88;;;24.40;90.20;;;;;;4998732;28;20499;-68
2023/07/24 07:49:11;;;;;;;7.93;3.30;;;24.40;90.10;;;;;;5004974;28;20179;-68
2023/07/24 07:51:57;;;;;;;4.95;2.55;;;24.50;89.90;;;;;;4989006;28;20050;-69
2023/07/24 07:54:47;;;;;;;2.92;1.95;;;24.50;89.50;;;;;;4989591;28;20045;-69
2023/07/24 07:57:36;;;;;;;3.80;2.28;;;24.60;89.20;;;;;;4992036;28;20150;-69
2023/07/24 08:00:22;;;;;;;3.97;2.40;;;24.60;89.20;;;;;;4999762;28;20438;-68
2023/07/24 08:03:08;;;;;;;2.80;1.80;;;24.70;88.90;;;;;;4998619;28;20042;-68
2023/07/24 08:05:57;;;;;;;4.53;1.73;;;24.70;88.70;;;;;;4996233;28;20100;-68
2023/07/24 08:08:43;;;;;;;2.63;1.50;;;24.80;88.40;;;;;;4991210;28;20062;-68
2023/07/24 08:11:29;;;;;;;2.45;1.95;;;24.90;88.10;;;;;;4990809;28;20463;-67
2023/07/24 08:14:15;;;;;;;2.15;1.52;;;24.90;88.00;;;;;;4990319;28;20510;-67
2023/07/24 08:17:01;;;;;;;3.65;2.10;;;25.00;88.20;;;;;;4989441;28;20430;-68
2023/07/24 08:19:47;;;;;;;2.38;1.75;;;25.10;88.00;;;;;;5004970;28;20042;-67
2023/07/24 08:22:33;;;;;;;4.00;2.45;;;25.20;87.50;;;;;;4990758;28;20081;-68
2023/07/24 08:25:19;;;;;;;2.47;1.50;;;25.30;87.40;;;;;;4988415;28;20101;-68
2023/07/24 08:28:05;;;;;;;2.85;1.95;;;25.40;86.70;;;;;;4996770;28;20049;-67
2023/07/24 08:30:58;;;;;;;11.88;3.45;;;25.50;86.20;;;;;;4992633;28;20038;-67
2023/07/24 08:33:44;;;;;;;10.15;2.72;;;25.60;85.90;;;;;;5005968;28;20052;-67
2023/07/24 08:36:30;;;;;;;5.40;2.55;;;25.60;85.50;;;;;;4993648;28;20049;-67
2023/07/24 08:39:16;;;;;;;5.80;2.75;;;25.80;85.50;;;;;;5009297;28;20042;-67
2023/07/24 08:42:11;;;;;;;4.00;1.98;;;25.90;86.00;;;;;;5010878;28;20084;-67
2023/07/24 08:44:58;;;;;;;4.13;2.28;;;26.00;85.70;;;;;;4993977;28;20053;-67
2023/07/24 08:47:45;;;;;;;3.00;1.95;;;26.10;85.00;;;;;;4993202;28;20487;-67
2023/07/24 08:50:31;;;;;;;4.32;1.70;;;26.10;84.80;;;;;;4992808;28;20073;-68
2023/07/24 08:53:20;;;;;;;2.65;1.80;;;26.20;84.50;;;;;;4993975;28;20054;-66
2023/07/24 08:56:09;;;;;;;3.30;1.90;;;26.20;84.20;;;;;;5001999;28;20053;-66
2023/07/24 08:58:55;;;;;;;2.65;1.50;;;26.30;84.10;;;;;;5004704;28;20490;-66
2023/07/24 09:01:41;;;;;;;2.40;1.60;;;26.40;83.90;;;;;;5004724;28;20057;-66
2023/07/24 09:04:28;;;;;;;3.05;2.08;;;26.50;83.80;;;;;;5004736;28;20506;-67
2023/07/24 09:07:14;;;;;;;3.13;1.70;;;26.60;83.70;;;;;;4993061;28;20093;-66
2023/07/24 09:10:00;;;;;;;3.55;2.17;;;26.70;84.10;;;;;;5001959;28;20475;-66
2023/07/24 09:12:45;;;;;;;3.80;2.20;;;26.80;83.50;;;;;;5000993;28;20886;-67
2023/07/24 09:15:44;;;;;;;2.53;1.60;;;26.90;83.30;;;;;;4991551;28;20141;-66
2023/07/24 09:18:43;;;;;;;2.80;1.38;;;26.90;82.80;;;;;;4992955;28;20046;-66
2023/07/24 09:21:30;;;;;;;6.38;2.60;;;27.00;82.70;;;;;;5005192;28;20037;-66
2023/07/24 09:24:16;;;;;;;6.68;2.80;;;27.00;82.10;;;;;;4992469;28;20030;-66
2023/07/24 09:27:05;;;;;;;5.82;2.53;;;27.00;81.90;;;;;;4992891;28;20042;-66
2023/07/24 09:29:51;;;;;;;3.13;2.05;;;27.10;82.00;;;;;;4991259;28;20163;-66
2023/07/24 09:32:38;;;;;;;4.50;2.10;;;27.10;81.40;;;;;;5008067;28;20072;-66
2023/07/24 09:35:28;;;;;;;9.10;2.03;;;27.20;81.30;;;;;;4990400;28;20712;-66
2023/07/24 09:38:14;;;;;;;3.47;1.73;;;27.30;81.50;;;;;;4998793;28;20046;-66
2023/07/24 09:41:02;;;;;;;4.35;1.55;;;27.40;80.80;;;;;;5010730;28;20121;-66
2023/07/24 09:43:47;;;;;;;4.53;1.65;;;27.40;80.40;;;;;;4998621;28;20038;-67
2023/07/24 09:46:34;;;;;;;4.55;2.17;;;27.50;80.30;;;;;;4994643;28;20563;-67
2023/07/24 09:49:20;;;;;;;4.10;1.60;;;27.50;79.90;;;;;;5007875;28;20470;-67
2023/07/24 09:52:10;;;;;;;4.22;1.85;;;27.50;79.50;;;;;;5009885;28;20033;-68
2023/07/24 09:55:04;;;;;;;2.78;1.70;;;27.60;79.20;;;;;;4998787;28;20653;-67
2023/07/24 09:57:53;;;;;;;3.28;2.15;;;27.70;78.90;;;;;;4991909;28;20494;-67
2023/07/24 10:00:40;;;;;;;6.68;2.40;;;27.80;79.30;;;;;;4990176;28;20034;-67
2023/07/24 10:03:26;;;;;;;8.30;2.47;;;27.90;78.90;;;;;;4999797;28;20077;-67
2023/07/24 10:06:14;;;;;;;3.92;2.50;;;28.00;78.30;;;;;;4990671;28;20129;-67
2023/07/24 10:09:01;;;;;;;3.70;1.88;;;28.10;78.00;;;;;;4992155;28;20054;-67
2023/07/24 10:11:47;;;;;;;4.30;2.05;;;28.10;77.50;;;;;;4991999;28;20038;-67
2023/07/24 10:14:35;;;;;;;62.17;9.38;;;28.00;77.10;;;;;;4991873;28;20046;-66
2023/07/24 10:17:35;;;;;;;7.57;2.15;;;28.00;76.80;;;;;;4993098;28;20069;-67
2023/07/24 10:20:21;;;;;;;2.85;1.60;;;28.00;76.80;;;;;;4990993;28;20046;-66
2023/07/24 10:23:10;;;;;;;4.95;2.17;;;27.90;76.40;;;;;;4997988;28;20049;-67
2023/07/24 10:26:05;;;;;;;4.03;2.00;;;28.00;76.50;;;;;;5008212;28;20038;-67
2023/07/24 10:28:51;;;;;;;2.35;1.55;;;28.00;76.10;;;;;;5007879;28;20054;-66
2023/07/24 10:31:37;;;;;;;9.48;4.55;;;28.00;75.70;;;;;;4996072;28;20121;-67
2023/07/24 10:34:23;;;;;;;4.50;2.70;;;28.10;75.70;;;;;;4990901;28;20050;-66
2023/07/24 10:37:10;;;;;;;5.57;2.65;;;28.10;75.70;;;;;;4990485;28;20526;-67
2023/07/24 10:39:55;;;;;;;4.22;2.25;;;28.10;75.50;;;;;;4989810;28;20246;-67
2023/07/24 10:42:41;;;;;;;5.00;2.58;;;28.10;74.30;;;;;;4991623;28;20494;-66
2023/07/24 10:45:51;;;;;;;3.67;2.38;;;28.00;73.90;;;;;;4992105;28;20038;-67
2023/07/24 10:48:41;;;;;;;4.07;2.13;;;28.10;73.70;;;;;;4990988;28;20069;-68
2023/07/24 10:51:28;;;;;;;5.18;2.78;;;28.00;73.40;;;;;;4989713;28;20038;-68
2023/07/24 10:54:21;;;;;;;7.22;2.33;;;28.10;73.60;;;;;;5006868;28;20080;-67
2023/07/24 10:57:07;;;;;;;3.88;2.47;;;28.10;73.40;;;;;;4999527;28;20042;-67
2023/07/24 10:59:53;;;;;;;6.88;3.13;;;28.10;72.90;;;;;;4994559;28;20042;-67
2023/07/24 11:02:39;;;;;;;4.82;2.47;;;28.10;73.00;;;;;;5002678;28;20100;-67
2023/07/24 11:05:25;;;;;;;4.15;2.50;;;28.20;72.50;;;;;;4989388;28;20046;-67
2023/07/24 11:08:15;;;;;;;8.77;4.50;;;28.30;72.00;;;;;;4998160;28;20149;-67
2023/07/24 11:11:02;;;;;;;5.35;3.10;;;28.30;71.30;;;;;;5008821;28;20038;-65
2023/07/24 11:13:48;;;;;;;6.60;2.88;;;28.30;71.10;;;;;;4990912;28;20476;-66
2023/07/24 11:16:34;;;;;;;4.78;3.35;;;28.40;71.00;;;;;;5002168;28;20076;-66
2023/07/24 11:19:24;;;;;;;5.20;3.40;;;28.40;71.00;;;;;;4992108;28;20100;-66
2023/07/24 11:22:11;;;;;;;12.23;3.72;;;28.50;70.70;;;;;;4990769;28;20551;-66
2023/07/24 11:24:57;;;;;;;13.27;3.95;;;28.50;70.50;;;;;;4989742;28;20484;-66
2023/07/24 11:27:43;;;;;;;7.97;2.50;;;28.60;70.30;;;;;;4994478;28;20133;-66
2023/07/24 11:30:30;;;;;;;6.05;2.55;;;28.60;70.20;;;;;;5004812;28;20068;-67
2023/07/24 11:33:16;;;;;;;4.65;2.65;;;28.70;70.30;;;;;;4997711;28;20053;-75
2023/07/24 11:36:03;;;;;;;6.28;2.92;;;28.70;70.00;;;;;;5007691;28;20069;-66
2023/07/24 11:38:48;;;;;;;4.88;2.78;;;28.70;69.70;;;;;;5007169;28;20042;-66
2023/07/24 11:41:34;;;;;;;4.78;2.70;;;28.70;69.50;;;;;;5004539;28;20043;-66
2023/07/24 11:44:27;;;;;;;5.95;3.03;;;28.70;69.70;;;;;;4992017;28;20042;-65
2023/07/24 11:47:13;;;;;;;5.22;2.53;;;28.70;69.70;;;;;;4993218;28;20133;-64
2023/07/24 11:50:00;;;;;;;4.85;2.78;;;28.80;69.30;;;;;;5008361;28;20062;-64
2023/07/24 11:52:48;;;;;;;3.58;2.38;;;28.80;69.30;;;;;;5004053;28;20042;-65
2023/07/24 11:55:34;;;;;;;7.55;3.03;;;28.80;68.80;;;;;;5003052;28;20534;-65
2023/07/24 11:58:20;;;;;;;6.10;3.65;;;28.90;69.00;;;;;;4990650;28;20527;-65
2023/07/24 12:01:06;;;;;;;7.60;4.18;;;28.90;68.70;;;;;;4982242;28;20046;-69
2023/07/24 12:03:52;;;;;;;16.10;4.93;;;28.90;68.10;;;;;;5002633;28;20635;-69
2023/07/24 12:06:38;;;;;;;12.90;5.28;;;28.80;67.80;;;;;;5006464;28;20069;-69
2023/07/24 12:09:29;;;;;;;14.60;6.55;;;28.80;67.70;;;;;;4996345;28;20061;-69
2023/07/24 12:12:17;;;;;;;9.38;5.22;;;28.70;67.60;;;;;;5003276;28;20569;-69
2023/07/24 12:15:04;;;;;;;6.53;3.58;;;28.70;67.80;;;;;;4987764;28;20046;-69
2023/07/24 12:17:49;;;;;;;5.43;3.25;;;28.50;67.50;;;;;;5008330;28;20062;-69
2023/07/24 12:20:35;;;;;;;7.95;3.55;;;28.50;67.50;;;;;;5000757;28;20486;-70
2023/07/24 12:23:21;;;;;;;7.18;4.13;;;28.30;66.90;;;;;;5001593;28;20173;-71
2023/07/24 12:26:07;;;;;;;5.68;3.42;;;28.20;67.20;;;;;;5004054;28;20126;-70
2023/07/24 12:28:54;;;;;;;4.18;2.58;;;28.10;67.30;;;;;;4993869;28;20050;-73
2023/07/24 12:31:40;;;;;;;5.28;2.78;;;28.00;68.10;;;;;;4999100;28;20490;-71
2023/07/24 12:34:26;;;;;;;16.00;4.75;;;27.80;69.00;;;;;;5006430;28;20053;-70
2023/07/24 12:37:12;;;;;;;37.15;8.45;;;27.70;70.10;;;;;;4998690;28;20415;-69
2023/07/24 12:39:58;;;;;;;20.45;4.05;;;27.50;71.00;;;;;;5006406;28;20414;-69
2023/07/24 12:42:44;;;;;;;6.15;3.63;;;27.40;71.70;;;;;;5000162;28;20038;-69
2023/07/24 12:45:30;;;;;;;5.47;2.78;;;27.30;72.20;;;;;;4992642;28;20047;-69
2023/07/24 12:48:17;;;;;;;5.63;2.92;;;27.20;73.00;;;;;;5001951;28;20144;-69
2023/07/24 12:51:03;;;;;;;6.07;3.08;;;27.00;73.70;;;;;;4998019;28;20039;-70
2023/07/24 12:53:49;;;;;;;6.38;3.42;;;26.90;74.80;;;;;;5006355;28;20045;-70
2023/07/24 12:56:35;;;;;;;4.22;2.58;;;26.90;75.40;;;;;;5012129;28;20038;-68
2023/07/24 12:59:21;;;;;;;4.25;2.58;;;26.80;76.30;;;;;;4995907;28;20049;-69
2023/07/24 13:02:07;;;;;;;4.93;2.78;;;26.80;76.90;;;;;;5011753;28;20457;-69
2023/07/24 13:04:53;;;;;;;5.95;3.03;;;26.80;77.40;;;;;;5006630;28;20542;-68
2023/07/24 13:07:39;;;;;;;5.82;2.65;;;26.70;77.70;;;;;;5005836;28;20425;-69
2023/07/24 13:10:24;;;;;;;4.00;2.35;;;26.70;77.90;;;;;;5006650;28;20419;-68
2023/07/24 13:13:10;;;;;;;14.25;3.97;;;26.60;78.70;;;;;;5003368;28;20400;-69
2023/07/24 13:15:56;;;;;;;15.48;3.90;;;26.40;78.80;;;;;;4996627;28;20486;-67
2023/07/24 13:18:42;;;;;;;15.80;3.95;;;26.40;79.00;;;;;;5010876;28;20038;-69
2023/07/24 13:21:28;;;;;;;10.63;3.65;;;26.30;79.70;;;;;;5003205;28;20042;-69
2023/07/24 13:24:14;;;;;;;6.50;2.95;;;26.30;80.00;;;;;;5007253;28;20044;-70
2023/07/24 13:27:01;;;;;;;6.90;3.03;;;26.30;80.60;;;;;;5010129;28;20065;-69
2023/07/24 13:29:46;;;;;;;4.40;2.33;;;26.30;80.60;;;;;;5006950;28;20111;-69
2023/07/24 13:32:32;;;;;;;5.57;2.53;;;26.30;80.70;;;;;;5009536;28;20379;-69
2023/07/24 13:35:19;;;;;;;30.13;7.35;;;26.30;80.70;;;;;;5011282;28;20061;-69
2023/07/24 13:38:04;;;;;;;6.10;2.42;;;26.40;81.80;;;;;;5002873;28;20050;-70
2023/07/24 13:40:50;;;;;;;24.75;5.22;;;26.40;81.10;;;;;;4994337;28;20069;-70
2023/07/24 13:43:36;;;;;;;13.75;3.58;;;26.50;80.90;;;;;;4993525;28;20054;-71
2023/07/24 13:46:22;;;;;;;22.75;5.65;;;26.80;81.20;;;;;;5010873;28;20038;-71
2023/07/24 13:49:08;;;;;;;7.85;3.13;;;26.90;81.20;;;;;;4995388;28;20418;-71
2023/07/24 13:51:54;;;;;;;17.70;4.18;;;27.10;80.90;;;;;;4998618;28;20046;-71
2023/07/24 13:54:40;;;;;;;5.70;2.90;;;27.20;80.80;;;;;;5003615;28;20039;-71
2023/07/24 13:57:26;;;;;;;6.03;2.80;;;27.30;80.30;;;;;;5005596;28;20679;-72
2023/07/24 14:00:12;;;;;;;6.43;3.17;;;27.30;80.80;;;;;;5009936;28;20438;-71
2023/07/24 14:02:58;;;;;;;4.65;2.50;;;27.40;80.90;;;;;;5009164;28;20517;-73
2023/07/24 14:05:44;;;;;;;4.85;2.78;;;27.40;80.70;;;;;;5010926;28;20529;-71
2023/07/24 14:08:30;;;;;;;13.20;3.45;;;27.40;81.30;;;;;;5004937;28;20054;-70
2023/07/24 14:11:16;;;;;;;5.53;2.90;;;27.40;81.40;;;;;;4999744;28;20038;-70
2023/07/24 14:14:02;;;;;;;17.92;5.47;;;27.30;81.50;;;;;;5001795;28;20041;-71
2023/07/24 14:16:48;;;;;;;4.07;2.35;;;27.20;81.90;;;;;;4997220;28;20042;-70
2023/07/24 14:19:34;;;;;;;4.88;2.40;;;27.10;82.20;;;;;;5000554;28;20090;-71
2023/07/24 14:22:20;;;;;;;4.40;2.22;;;27.10;82.50;;;;;;4991966;28;20050;-70
2023/07/24 14:25:06;;;;;;;5.10;2.60;;;27.10;83.20;;;;;;4989387;28;20067;-70
2023/07/24 14:27:52;;;;;;;11.93;3.13;;;27.10;83.30;;;;;;4991726;28;20053;-70